Hts Crnr, Indiana
Current Conditions -  °F | °C
As of 5:16 PM on Sunday 23 Nov 2014 (Local Time) from KBMG Reporting Station
Moderate Rain Moderate Rain  
Wind Chill: 52°   Ceiling: 600
Heat Index: 52°   Visibility: 5mi
Dew Point: 52°   Wind: 14mph
Humidity: 100%   Direction: 140°SE
Pressure: 29.45"   Gusts: 21mph
Location:  39.3008°N, 86.8112°W
Report Text: KBMG 232216Z 14012G18KT 5SM RA BR BKN006 OVC010 11/11 A2945 RMK AO2 P0006 T01110111
Loading
Personal Weather Stations






























Interactive Weather Map New forecast layout! Learn more

10-Day Weather Forecast

Advertisements
Track Severe Weather on mobile